Time;durP1;ratioP1;P1;durP2;ratioP2;P2;SDS_P1;SDS_P2;PMS_P1;PMS_P2;Temp;Humidity;BMP_temperature;BMP_pressure;BME280_temperature;BME280_humidity;BME280_pressure;Samples;Min_cycle;Max_cycle;Signal;HPM_P1;HPM_P2
2021/06/17 00:00:19;;;;;;;0.40;0.40;;;;;;;19.70;61.13;99682.09;6195722;23;20011;-75
2021/06/17 00:02:45;;;;;;;0.47;0.47;;;;;;;19.73;61.33;99686.16;6224732;23;20411;-76
2021/06/17 00:05:13;;;;;;;0.40;0.40;;;;;;;19.73;61.80;99677.00;6173292;23;20012;-75
2021/06/17 00:07:39;;;;;;;0.90;0.90;;;;;;;19.71;61.50;99692.03;6223436;22;20017;-74
2021/06/17 00:10:08;;;;;;;1.10;0.90;;;;;;;19.62;61.97;99691.31;6225332;23;20025;-76
2021/06/17 00:12:34;;;;;;;1.17;1.17;;;;;;;19.60;62.65;99687.31;6220076;23;20007;-76
2021/06/17 00:15:02;;;;;;;1.35;1.35;;;;;;;19.53;63.02;99679.53;6173696;23;20000;-81
2021/06/17 00:17:27;;;;;;;0.47;0.47;;;;;;;19.54;62.60;99667.31;6194528;23;20394;-75
2021/06/17 00:19:53;;;;;;;0.80;0.80;;;;;;;19.54;62.62;99662.56;6196552;23;20032;-74
2021/06/17 00:22:21;;;;;;;1.50;0.65;;;;;;;19.57;63.19;99661.06;6199923;23;20004;-74
2021/06/17 00:24:46;;;;;;;2.45;0.80;;;;;;;19.59;63.47;99652.41;6150166;23;20086;-73
2021/06/17 00:27:12;;;;;;;1.40;1.20;;;;;;;19.51;63.25;99643.03;6200656;23;20004;-74
2021/06/17 00:29:37;;;;;;;4.13;0.82;;;;;;;19.57;63.78;99649.97;6229020;23;20012;-77
2021/06/17 00:32:03;;;;;;;0.63;0.63;;;;;;;19.51;63.85;99641.06;6177818;23;20060;-73
2021/06/17 00:34:29;;;;;;;0.80;0.80;;;;;;;19.54;64.25;99650.66;6227216;23;20061;-76
2021/06/17 00:36:54;;;;;;;0.65;0.63;;;;;;;19.51;63.90;99641.06;6181784;23;20012;-75
2021/06/17 00:39:20;;;;;;;0.70;0.70;;;;;;;19.49;64.81;99637.84;6232660;23;20304;-74
2021/06/17 00:41:45;;;;;;;1.67;0.70;;;;;;;19.46;64.69;99637.72;6233350;23;20004;-75
2021/06/17 00:44:11;;;;;;;0.75;0.60;;;;;;;19.44;64.62;99640.03;6232025;23;20009;-75
2021/06/17 00:46:36;;;;;;;1.23;0.90;;;;;;;19.38;65.15;99631.13;6205602;23;20130;-75
2021/06/17 00:49:05;;;;;;;1.00;0.90;;;;;;;19.34;65.00;99628.22;6207467;23;20016;-75
2021/06/17 00:51:30;;;;;;;0.93;0.43;;;;;;;19.30;65.35;99626.47;6232791;23;20388;-73
2021/06/17 00:53:56;;;;;;;0.73;0.63;;;;;;;19.25;65.92;99615.63;6205920;23;20015;-75
2021/06/17 00:56:22;;;;;;;0.80;0.52;;;;;;;19.24;65.56;99625.88;6234667;23;20016;-75
2021/06/17 00:58:48;;;;;;;1.33;0.85;;;;;;;19.22;65.64;99619.91;6232625;23;20016;-74
2021/06/17 01:01:13;;;;;;;0.68;0.65;;;;;;;19.18;66.04;99622.53;6207034;23;20032;-74
2021/06/17 01:03:39;;;;;;;1.52;0.73;;;;;;;19.15;66.21;99617.69;6229938;23;20011;-75
2021/06/17 01:06:11;;;;;;;0.68;0.68;;;;;;;19.08;66.08;99608.31;6232896;23;20320;-75
2021/06/17 01:08:56;;;;;;;0.60;0.60;;;;;;;19.09;66.27;99612.72;6206439;23;20016;-75
2021/06/17 01:11:43;;;;;;;1.05;0.68;;;;;;;19.05;66.68;99620.88;6232330;23;20107;-77
2021/06/17 01:14:18;;;;;;;2.35;1.00;;;;;;;18.95;66.82;99641.56;6234153;23;19997;-76
2021/06/17 01:16:51;;;;;;;2.63;0.80;;;;;;;18.86;67.13;99635.25;6234811;23;20028;-76
2021/06/17 01:19:32;;;;;;;0.65;0.65;;;;;;;18.82;67.31;99634.28;6232389;23;20000;-76
2021/06/17 01:21:57;;;;;;;1.40;0.63;;;;;;;18.80;67.15;99629.09;6234368;23;20007;-70
2021/06/17 01:24:41;;;;;;;2.05;0.70;;;;;;;18.82;67.05;99637.06;6202646;23;20005;-70
2021/06/17 01:27:20;;;;;;;0.80;0.73;;;;;;;18.77;67.42;99640.06;6200833;23;20024;-70
2021/06/17 01:29:50;;;;;;;1.48;0.60;;;;;;;18.74;67.69;99646.28;6227547;23;20098;-71
2021/06/17 01:32:17;;;;;;;1.30;0.82;;;;;;;18.68;68.07;99637.38;6227732;23;20005;-71
2021/06/17 01:34:45;;;;;;;0.55;0.55;;;;;;;18.72;68.18;99656.88;6229015;23;20012;-72
2021/06/17 01:37:13;;;;;;;0.65;0.65;;;;;;;18.73;68.22;99655.72;6203708;23;20082;-71
2021/06/17 01:39:41;;;;;;;0.70;0.70;;;;;;;18.69;67.97;99649.25;6205181;23;20012;-71
2021/06/17 01:42:09;;;;;;;0.80;0.75;;;;;;;18.73;67.86;99655.72;6231562;23;20004;-70
2021/06/17 01:44:36;;;;;;;0.80;0.80;;;;;;;18.75;67.80;99654.25;6234142;23;20000;-76
2021/06/17 01:47:04;;;;;;;0.57;0.52;;;;;;;18.80;67.47;99656.00;6233125;23;20446;-74
2021/06/17 01:49:30;;;;;;;0.60;0.60;;;;;;;18.79;67.95;99654.38;6232657;23;20019;-73
2021/06/17 01:51:57;;;;;;;1.00;1.00;;;;;;;18.74;67.65;99649.06;6228296;23;20008;-72
2021/06/17 01:54:26;;;;;;;0.90;0.90;;;;;;;18.74;68.33;99657.34;6231142;23;20001;-74
2021/06/17 01:56:58;;;;;;;1.25;1.17;;;;;;;18.70;68.20;99656.41;6202735;23;20013;-74
2021/06/17 01:59:25;;;;;;;1.58;1.48;;;;;;;18.66;68.14;99657.09;6203079;23;20001;-75
2021/06/17 02:01:54;;;;;;;1.17;0.95;;;;;;;18.69;68.17;99665.84;6230204;23;20012;-75
2021/06/17 02:04:21;;;;;;;1.15;1.13;;;;;;;18.69;68.69;99676.94;6231194;23;20039;-74
2021/06/17 02:06:47;;;;;;;3.72;0.95;;;;;;;18.67;68.10;99686.41;6200341;22;20020;-73
2021/06/17 02:09:13;;;;;;;1.17;1.13;;;;;;;18.68;68.70;99676.13;6230575;23;20021;-74
2021/06/17 02:11:39;;;;;;;1.25;1.17;;;;;;;18.64;68.08;99670.44;6205325;23;20015;-74
2021/06/17 02:14:09;;;;;;;2.03;1.20;;;;;;;18.60;68.70;99663.16;6204071;23;20024;-76
2021/06/17 02:16:35;;;;;;;1.50;1.15;;;;;;;18.60;68.89;99658.47;6229453;23;20023;-74
2021/06/17 02:19:03;;;;;;;1.00;1.00;;;;;;;18.52;68.86;99651.03;6203668;23;20450;-74
2021/06/17 02:21:31;;;;;;;1.65;1.08;;;;;;;18.57;68.53;99659.09;6174421;23;20009;-74
2021/06/17 02:24:00;;;;;;;1.25;1.15;;;;;;;18.53;69.12;99647.13;6229883;23;20001;-74
2021/06/17 02:26:26;;;;;;;0.70;0.70;;;;;;;18.57;68.77;99664.66;6204198;23;20463;-74
2021/06/17 02:28:54;;;;;;;1.27;0.77;;;;;;;18.54;68.59;99643.19;6155080;23;20009;-74
2021/06/17 02:31:28;;;;;;;0.40;0.40;;;;;;;18.62;68.86;99656.16;6201819;23;20024;-74
2021/06/17 02:33:54;;;;;;;0.60;0.50;;;;;;;18.70;68.63;99659.19;6199877;23;20017;-75
2021/06/17 02:36:26;;;;;;;0.40;0.40;;;;;;;18.73;67.87;99661.28;6154205;23;20348;-74
2021/06/17 02:39:00;;;;;;;0.30;0.30;;;;;;;18.78;68.43;99659.09;6180421;23;20108;-76
2021/06/17 02:41:27;;;;;;;0.63;0.47;;;;;;;18.79;68.08;99671.81;6230208;23;20051;-74
2021/06/17 02:43:55;;;;;;;0.60;0.60;;;;;;;18.81;68.39;99668.69;6228080;23;20022;-75
2021/06/17 02:46:21;;;;;;;0.85;0.85;;;;;;;18.78;68.45;99664.63;6224114;23;20337;-74
2021/06/17 02:49:19;;;;;;;;;;;;;;;;;;;;;
2021/06/17 02:52:51;;;;;;;2.13;1.58;;;;;;;18.65;67.94;99649.94;6197960;23;20012;-73
2021/06/17 02:55:38;;;;;;;1.27;1.17;;;;;;;18.71;68.15;99663.59;6175475;23;20036;-74
2021/06/17 02:58:50;;;;;;;1.10;0.93;;;;;;;18.68;67.91;99665.06;6200097;23;20004;-74
2021/06/17 03:01:22;;;;;;;1.30;1.30;;;;;;;18.61;68.73;99648.97;6180596;23;20025;-75
2021/06/17 03:04:22;;;;;;;0.77;0.60;;;;;;;18.61;68.72;99643.44;6205054;23;20072;-75
2021/06/17 03:07:21;;;;;;;1.30;1.25;;;;;;;18.46;68.35;99635.78;6230573;23;20031;-73
2021/06/17 03:10:05;;;;;;;4.43;1.75;;;;;;;18.50;69.02;99672.72;6190248;23;20008;-73
2021/06/17 03:13:04;;;;;;;;;;;;;;;;;;;;;
2021/06/17 03:15:44;;;;;;;1.73;1.63;;;;;;;18.16;69.05;99641.34;6208907;23;20048;-74
2021/06/17 03:18:15;;;;;;;1.48;1.20;;;;;;;18.09;69.65;99632.78;6204371;23;20327;-74
2021/06/17 03:20:44;;;;;;;1.75;1.65;;;;;;;18.17;69.78;99656.81;6229927;23;20020;-73
2021/06/17 03:23:44;;;;;;;5.93;2.05;;;;;;;18.08;69.85;99658.84;6231749;23;20025;-73
2021/06/17 03:26:12;;;;;;;5.45;2.10;;;;;;;18.05;69.73;99651.22;6227330;23;19996;-74
2021/06/17 03:28:39;;;;;;;2.05;1.55;;;;;;;18.08;69.79;99667.94;6228745;23;20001;-73
2021/06/17 03:31:12;;;;;;;3.38;1.90;;;;;;;17.90;69.76;99650.66;6229412;23;20000;-74
2021/06/17 03:33:51;;;;;;;;;;;;;;;;;;;;;
2021/06/17 03:36:26;;;;;;;5.13;2.50;;;;;;;17.91;70.58;99668.84;6227076;23;20032;-73
2021/06/17 03:38:52;;;;;;;1.80;1.70;;;;;;;17.88;70.45;99661.19;6203019;23;20009;-74
2021/06/17 03:41:22;;;;;;;1.77;1.67;;;;;;;17.72;70.82;99646.31;6201736;23;20012;-73
2021/06/17 03:44:03;;;;;;;;;;;;;;;;;;;;;
2021/06/17 03:46:29;;;;;;;2.78;2.58;;;;;;;17.57;70.97;99642.97;6226285;23;20036;-73
2021/06/17 03:48:57;;;;;;;3.08;2.88;;;;;;;17.47;71.74;99640.56;6183973;23;20037;-72
2021/06/17 03:51:51;;;;;;;4.03;2.38;;;;;;;17.50;71.80;99667.53;6196828;23;20041;-73
2021/06/17 03:54:25;;;;;;;2.85;2.65;;;;;;;17.41;72.24;99656.53;6197135;23;20001;-73
2021/06/17 03:56:59;;;;;;;3.25;3.05;;;;;;;17.38;72.35;99659.16;6172986;23;20032;-72
2021/06/17 03:59:47;;;;;;;2.70;2.60;;;;;;;17.36;72.17;99651.19;6199788;23;20001;-72
2021/06/17 04:02:24;;;;;;;3.58;2.70;;;;;;;17.20;72.69;99637.09;6173082;23;20005;-73
2021/06/17 04:08:54;;;;;;;3.20;2.97;;;;;;;17.37;72.45;99663.03;6188714;23;20009;-76
2021/06/17 04:11:51;;;;;;;3.22;3.03;;;;;;;17.35;72.63;99654.28;6174075;23;20001;-75
2021/06/17 04:17:52;;;;;;;4.00;3.70;;;;;;;17.21;72.93;99627.66;6199865;23;20035;-75
2021/06/17 04:21:00;;;;;;;;;;;;;;;;;;;;;
2021/06/17 04:27:00;;;;;;;4.35;4.07;;;;;;;17.14;73.29;99613.53;6045775;23;20082;-75
2021/06/17 04:51:26;;;;;;;6.20;5.63;;;;;;;17.61;73.18;99657.75;5940513;24;20483;-74
2021/06/17 05:05:09;;;;;;;7.13;6.45;;;;;;;17.60;72.83;99645.06;6080314;23;20006;-74
2021/06/17 05:13:05;;;;;;;7.47;6.97;;;;;;;17.84;72.56;99679.59;6097525;23;20089;-73
2021/06/17 05:15:37;;;;;;;7.28;6.68;;;;;;;17.86;72.27;99682.84;6111333;23;20549;-72
2021/06/17 05:18:03;;;;;;;7.05;6.65;;;;;;;17.89;72.60;99684.94;6113071;23;20106;-77
2021/06/17 05:20:56;;;;;;;6.10;5.50;;;;;;;17.97;72.16;99677.75;6114131;23;20013;-74
2021/06/17 05:23:30;;;;;;;6.00;5.63;;;;;;;18.03;71.98;99683.91;6106014;23;20059;-74
2021/06/17 05:26:01;;;;;;;6.78;6.47;;;;;;;18.08;71.87;99686.50;6111670;23;20001;-76
2021/06/17 05:29:11;;;;;;;7.80;7.30;;;;;;;18.21;72.13;99682.69;6155772;23;20034;-73
2021/06/17 05:31:37;;;;;;;7.63;7.00;;;;;;;18.18;71.87;99680.59;6233713;23;20004;-74
2021/06/17 05:34:03;;;;;;;8.55;7.93;;;;;;;18.23;71.90;99699.75;6182701;23;20008;-73
2021/06/17 05:36:28;;;;;;;8.38;7.57;;;;;;;18.25;71.71;99697.47;6184754;23;20014;-74
2021/06/17 05:38:54;;;;;;;7.68;7.10;;;;;;;18.28;71.76;99695.97;6206903;23;20095;-70
2021/06/17 05:41:20;;;;;;;8.70;7.90;;;;;;;18.31;72.19;99707.19;6206898;23;20012;-72
2021/06/17 05:43:46;;;;;;;6.45;6.13;;;;;;;18.33;71.54;99703.28;6226103;23;20011;-71
2021/06/17 05:46:14;;;;;;;7.32;6.70;;;;;;;18.38;71.99;99706.63;6205964;23;20012;-73
2021/06/17 05:48:49;;;;;;;7.82;7.25;;;;;;;18.48;71.39;99722.84;6256668;23;20004;-76
2021/06/17 05:51:15;;;;;;;8.00;7.28;;;;;;;18.46;71.79;99721.59;6185212;23;20016;-73
2021/06/17 05:53:45;;;;;;;5.60;5.10;;;;;;;18.50;71.70;99725.31;6233037;23;20039;-73
2021/06/17 05:56:11;;;;;;;10.05;7.90;;;;;;;18.59;71.51;99734.34;6187414;22;20423;-73
2021/06/17 05:58:37;;;;;;;7.88;7.38;;;;;;;18.65;70.85;99737.72;6234266;22;20011;-72
2021/06/17 06:01:05;;;;;;;7.65;6.95;;;;;;;18.71;71.20;99746.66;6260149;22;20004;-72
2021/06/17 06:03:33;;;;;;;8.73;8.10;;;;;;;18.74;70.96;99743.22;6259284;22;20015;-71
2021/06/17 06:06:12;;;;;;;7.85;7.35;;;;;;;18.81;71.18;99746.25;6236733;22;20445;-73
2021/06/17 06:08:46;;;;;;;7.05;6.55;;;;;;;18.84;70.64;99746.38;6236570;22;20018;-72
2021/06/17 06:11:12;;;;;;;8.60;6.97;;;;;;;18.91;70.63;99748.63;6210542;22;20039;-72
2021/06/17 06:13:38;;;;;;;10.23;8.05;;;;;;;18.98;70.46;99757.22;6233350;22;20012;-73
2021/06/17 06:16:04;;;;;;;7.53;6.95;;;;;;;19.03;70.58;99750.66;6236823;22;20007;-76
2021/06/17 06:18:31;;;;;;;7.18;6.03;;;;;;;19.12;70.14;99750.56;6263278;22;20010;-75
2021/06/17 06:20:58;;;;;;;5.53;5.32;;;;;;;19.24;70.09;99767.25;6214074;22;20058;-74
2021/06/17 06:23:28;;;;;;;6.95;6.55;;;;;;;19.26;69.84;99770.50;6260669;22;20050;-73
2021/06/17 06:25:54;;;;;;;5.18;4.80;;;;;;;19.26;69.40;99778.81;6261874;22;19996;-73
2021/06/17 06:28:21;;;;;;;6.45;6.05;;;;;;;19.23;69.60;99785.03;6262831;22;20030;-77
2021/06/17 06:31:31;;;;;;;7.10;6.53;;;;;;;19.18;70.01;99771.38;6238708;22;20061;-75
2021/06/17 06:33:56;;;;;;;4.85;4.60;;;;;;;19.28;69.13;99772.94;6261076;22;20047;-72
2021/06/17 06:36:22;;;;;;;4.22;3.92;;;;;;;19.31;69.62;99775.81;6233758;22;20036;-73
2021/06/17 06:38:47;;;;;;;3.25;3.05;;;;;;;19.46;68.85;99782.69;6233452;22;20015;-71
2021/06/17 06:41:13;;;;;;;2.72;2.58;;;;;;;19.64;68.76;99780.56;6255383;22;20007;-71
2021/06/17 06:43:39;;;;;;;3.20;3.00;;;;;;;19.80;68.37;99779.91;6207211;22;20022;-71
2021/06/17 06:46:04;;;;;;;4.88;3.40;;;;;;;19.88;67.38;99779.81;6210041;22;20003;-74
2021/06/17 06:48:31;;;;;;;2.03;1.92;;;;;;;19.95;67.00;99787.56;6259315;22;20007;-74
2021/06/17 06:50:59;;;;;;;4.57;3.38;;;;;;;19.95;67.12;99793.13;6263805;22;20003;-76
2021/06/17 06:53:43;;;;;;;3.28;3.08;;;;;;;19.93;66.73;99792.66;6268898;22;20022;-72
2021/06/17 06:56:12;;;;;;;3.42;3.22;;;;;;;19.75;66.66;99789.22;6236898;22;20071;-74
2021/06/17 06:58:45;;;;;;;2.70;2.60;;;;;;;19.70;66.52;99812.47;6261292;22;20012;-73
2021/06/17 07:01:11;;;;;;;3.03;2.83;;;;;;;19.53;67.45;99807.09;6240723;22;19999;-77
2021/06/17 07:03:50;;;;;;;;;;;;;;;;;;;;;
2021/06/17 07:06:28;;;;;;;;;;;;;;;;;;;;;
2021/06/17 07:12:36;;;;;;;1.08;1.08;;;;;;;19.44;67.19;99790.53;6169625;23;20029;-78
2021/06/17 07:15:07;;;;;;;1.38;1.38;;;;;;;19.57;66.59;99810.81;6238334;22;20012;-77
2021/06/17 07:17:53;;;;;;;0.80;0.80;;;;;;;19.65;66.77;99809.09;6238912;22;20007;-76
2021/06/17 07:20:18;;;;;;;0.95;0.95;;;;;;;19.58;65.42;99795.78;6290690;22;20007;-76
2021/06/17 07:22:55;;;;;;;1.50;1.40;;;;;;;19.66;65.31;99807.94;6291533;22;20023;-76
2021/06/17 07:25:28;;;;;;;1.10;1.02;;;;;;;19.73;65.49;99793.50;6290019;22;19996;-76
2021/06/17 07:27:57;;;;;;;2.45;1.60;;;;;;;19.88;64.77;99798.41;6288988;22;20000;-76
2021/06/17 07:30:26;;;;;;;0.90;0.90;;;;;;;20.26;64.41;99829.81;6263188;22;20003;-76
2021/06/17 07:32:51;;;;;;;0.50;0.50;;;;;;;20.48;64.72;99829.34;6288134;22;19999;-76
2021/06/17 07:35:17;;;;;;;0.50;0.50;;;;;;;20.69;64.48;99820.94;6263347;22;20014;-76
2021/06/17 07:37:43;;;;;;;0.50;0.50;;;;;;;21.02;63.80;99825.47;6214741;22;20038;-76
2021/06/17 07:40:11;;;;;;;0.40;0.40;;;;;;;21.38;63.47;99818.19;6260094;22;20055;-76
2021/06/17 07:42:37;;;;;;;0.70;0.70;;;;;;;21.58;61.60;99812.78;6263478;22;20008;-76
2021/06/17 07:45:08;;;;;;;0.30;0.25;;;;;;;21.84;61.71;99817.06;6264183;22;20008;-77
2021/06/17 07:47:37;;;;;;;1.70;1.10;;;;;;;22.00;59.45;99814.28;6262133;22;19996;-75
2021/06/17 07:50:12;;;;;;;1.10;1.08;;;;;;;21.88;59.41;99785.38;6238719;22;20004;-75
2021/06/17 07:52:38;;;;;;;0.50;0.50;;;;;;;22.11;59.61;99793.91;6290458;22;19996;-75
2021/06/17 07:55:06;;;;;;;0.80;0.80;;;;;;;22.41;59.09;99804.59;6287080;22;20019;-75
2021/06/17 07:57:32;;;;;;;0.60;0.60;;;;;;;22.64;58.60;99807.53;6289485;22;20007;-77
2021/06/17 07:59:59;;;;;;;0.95;0.88;;;;;;;22.78;57.70;99815.41;6263395;22;20080;-76
2021/06/17 08:02:26;;;;;;;0.50;0.50;;;;;;;22.87;57.20;99822.75;6263069;22;20007;-76
2021/06/17 08:04:55;;;;;;;0.80;0.80;;;;;;;22.87;56.58;99831.09;6264476;22;20040;-76
2021/06/17 08:07:31;;;;;;;;;;;;;;;;;;;;;
2021/06/17 08:09:57;;;;;;;0.70;0.70;;;;;;;22.67;56.51;99836.66;6290333;22;20011;-76
2021/06/17 08:12:34;;;;;;;0.82;0.60;;;;;;;22.76;56.75;99828.09;6290269;22;19999;-77
2021/06/17 08:15:18;;;;;;;0.35;0.35;;;;;;;23.03;56.83;99831.88;6240061;22;20011;-76
2021/06/17 08:17:56;;;;;;;;;;;;;;;;;;;;;
2021/06/17 08:20:35;;;;;;;;;;;;;;;;;;;;;
2021/06/17 08:23:01;;;;;;;1.10;1.10;;;;;;;23.58;55.20;99811.50;6290485;22;20327;-76
2021/06/17 08:25:29;;;;;;;0.77;0.75;;;;;;;24.12;55.23;99843.22;6264492;22;20004;-77
2021/06/17 08:28:04;;;;;;;0.80;0.80;;;;;;;24.36;54.38;99833.66;6291890;22;20008;-76
2021/06/17 08:30:31;;;;;;;0.68;0.68;;;;;;;24.67;53.26;99837.38;6290381;22;19996;-76
2021/06/17 08:33:07;;;;;;;2.15;1.17;;;;;;;24.89;52.35;99830.88;6265508;22;20061;-76
2021/06/17 08:35:32;;;;;;;0.70;0.70;;;;;;;25.02;51.29;99816.69;6265892;22;20007;-78
2021/06/17 08:37:59;;;;;;;0.80;0.80;;;;;;;25.31;51.31;99837.47;6264943;22;20004;-76
2021/06/17 08:40:48;;;;;;;0.50;0.40;;;;;;;25.41;51.47;99813.63;6264881;22;20008;-76
2021/06/17 08:43:22;;;;;;;1.45;0.57;;;;;;;25.83;50.46;99834.88;6248492;22;20012;-76
2021/06/17 08:45:51;;;;;;;1.23;0.60;;;;;;;25.83;49.23;99829.25;6267307;22;20007;-76
2021/06/17 08:48:35;;;;;;;;;;;;;;;;;;;;;
2021/06/17 08:51:02;;;;;;;1.27;1.17;;;;;;;25.86;48.12;99803.28;6294875;22;20003;-76
2021/06/17 08:53:28;;;;;;;0.20;0.20;;;;;;;25.89;48.46;99808.13;6292297;22;20015;-75
2021/06/17 08:55:59;;;;;;;0.60;0.50;;;;;;;25.84;48.25;99802.84;6290473;22;20004;-77
2021/06/17 08:58:25;;;;;;;1.05;0.50;;;;;;;25.79;47.96;99820.03;6292054;22;20051;-76
2021/06/17 09:00:53;;;;;;;2.30;0.50;;;;;;;25.54;48.76;99803.75;6292825;22;20004;-76
2021/06/17 09:03:19;;;;;;;0.45;0.45;;;;;;;25.50;48.72;99800.09;6267031;22;20057;-76
2021/06/17 09:06:00;;;;;;;0.40;0.40;;;;;;;25.68;48.38;99816.28;6265692;22;20011;-76
2021/06/17 09:08:59;;;;;;;0.40;0.38;;;;;;;25.63;48.33;99797.03;6292947;22;20000;-75
2021/06/17 09:11:26;;;;;;;2.22;0.77;;;;;;;25.57;48.04;99796.59;6289660;22;20007;-76
2021/06/17 09:13:57;;;;;;;0.40;0.40;;;;;;;25.68;47.85;99824.69;6263105;22;20006;-76
2021/06/17 09:16:37;;;;;;;;;;;;;;;;;;;;;
2021/06/17 09:19:02;;;;;;;3.42;0.70;;;;;;;25.63;47.71;99791.44;6292485;22;20141;-76
2021/06/17 09:21:28;;;;;;;0.20;0.20;;;;;;;25.70;48.59;99789.53;6266752;22;20008;-77
2021/06/17 09:23:58;;;;;;;0.40;0.40;;;;;;;26.12;48.32;99823.94;6292107;22;20007;-75
2021/06/17 09:26:24;;;;;;;0.70;0.70;;;;;;;26.00;46.87;99801.84;6263848;22;20003;-76
2021/06/17 09:28:59;;;;;;;0.30;0.30;;;;;;;26.11;47.36;99833.56;6240017;22;20069;-76
2021/06/17 09:31:40;;;;;;;0.60;0.60;;;;;;;25.96;47.10;99801.75;6264873;22;20038;-76
2021/06/17 09:34:07;;;;;;;0.80;0.80;;;;;;;25.91;46.92;99822.53;6264823;22;20007;-77
2021/06/17 09:36:39;;;;;;;1.65;0.60;;;;;;;25.95;47.05;99848.59;6240254;22;20031;-76
2021/06/17 09:39:35;;;;;;;0.10;0.10;;;;;;;26.23;47.36;99843.66;6241708;22;20022;-76
2021/06/17 09:42:10;;;;;;;;;;;;;;;26.63;45.96;99836.34;6293072;22;20004;-74
2021/06/17 09:44:45;;;;;;;0.38;0.38;;;;;;;26.47;46.42;99823.44;6262745;22;19907;-73
2021/06/17 09:47:18;;;;;;;0.30;0.20;;;;;;;26.64;46.36;99847.19;6262924;22;20034;-74
2021/06/17 09:49:54;;;;;;;0.30;0.30;;;;;;;26.67;45.96;99836.41;6260885;22;19999;-75
2021/06/17 09:52:39;;;;;;;0.30;0.30;;;;;;;26.96;46.18;99837.41;6290277;22;19999;-73
2021/06/17 09:55:05;;;;;;;0.43;0.43;;;;;;;27.10;45.97;99845.09;6256941;22;20411;-74
2021/06/17 09:57:36;;;;;;;0.30;0.30;;;;;;;27.19;45.77;99820.28;6258709;22;20241;-74
2021/06/17 10:00:11;;;;;;;0.22;0.22;;;;;;;27.53;45.31;99820.03;6257275;22;20004;-74
2021/06/17 10:02:38;;;;;;;0.40;0.40;;;;;;;27.87;45.12;99830.94;6259754;22;20074;-75
2021/06/17 10:05:26;;;;;;;0.40;0.30;;;;;;;28.17;44.64;99838.25;6258689;23;20051;-75
2021/06/17 10:07:52;;;;;;;0.17;0.17;;;;;;;28.30;44.19;99833.84;6259994;22;20004;-75
2021/06/17 10:10:22;;;;;;;0.40;0.40;;;;;;;28.48;43.51;99833.81;6234176;23;20012;-74
2021/06/17 10:12:48;;;;;;;0.50;0.40;;;;;;;28.43;43.42;99831.41;6258838;22;20007;-75
2021/06/17 10:15:13;;;;;;;0.20;0.20;;;;;;;28.27;42.96;99831.81;6256601;23;20012;-75
2021/06/17 10:17:39;;;;;;;0.30;0.20;;;;;;;28.39;43.02;99813.75;6257964;23;20024;-74
2021/06/17 10:20:09;;;;;;;3.13;0.30;;;;;;;28.80;42.29;99809.69;6256607;23;20015;-73
2021/06/17 10:22:39;;;;;;;0.43;0.30;;;;;;;28.87;40.96;99830.16;6258259;22;20377;-74
2021/06/17 10:25:07;;;;;;;0.20;0.20;;;;;;;28.91;41.16;99838.59;6255983;23;20011;-75
2021/06/17 10:27:35;;;;;;;0.20;0.20;;;;;;;29.01;41.52;99832.13;6258990;22;19996;-74
2021/06/17 10:30:02;;;;;;;0.20;0.20;;;;;;;29.34;41.38;99841.28;6256460;23;20030;-74
2021/06/17 10:32:36;;;;;;;1.70;0.15;;;;;;;29.53;40.74;99844.84;6257525;22;20013;-74
2021/06/17 10:35:05;;;;;;;1.75;0.40;;;;;;;29.58;40.37;99839.59;6258916;23;20004;-75
2021/06/17 10:37:33;;;;;;;0.40;0.40;;;;;;;29.81;39.32;99837.44;6255658;23;20107;-74
2021/06/17 10:40:10;;;;;;;0.17;0.17;;;;;;;29.92;39.36;99841.00;6258509;23;20004;-73
2021/06/17 10:42:36;;;;;;;0.28;0.28;;;;;;;29.76;39.04;99831.03;6253029;23;20091;-74
2021/06/17 10:45:35;;;;;;;0.40;0.20;;;;;;;29.56;39.19;99844.81;6258018;23;20030;-73
2021/06/17 10:48:14;;;;;;;0.45;0.10;;;;;;;29.30;38.98;99850.97;6254088;23;20008;-75
2021/06/17 10:50:48;;;;;;;0.20;0.20;;;;;;;29.28;39.80;99850.56;6255774;23;20035;-73
2021/06/17 10:53:22;;;;;;;0.10;0.10;;;;;;;29.73;39.98;99853.56;6253859;23;20016;-74
2021/06/17 10:56:01;;;;;;;0.40;0.22;;;;;;;30.48;38.96;99857.13;6288504;22;20084;-74
2021/06/17 10:58:45;;;;;;;0.13;0.10;;;;;;;31.01;36.96;99860.66;6256908;22;20000;-73
2021/06/17 11:01:35;;;;;;;0.22;0.20;;;;;;;31.70;37.73;99866.31;6262534;22;20007;-75
2021/06/17 11:04:11;;;;;;;0.20;0.13;;;;;;;32.08;36.30;99875.47;6277302;22;20074;-75
2021/06/17 11:06:52;;;;;;;0.20;0.20;;;;;;;32.18;35.06;99874.53;6288589;22;20015;-75
2021/06/17 11:09:52;;;;;;;0.20;0.08;;;;;;;32.28;35.55;99874.75;6260299;22;20011;-73
2021/06/17 11:12:34;;;;;;;6.47;0.30;;;;;;;32.29;34.81;99879.19;6289099;22;20609;-77
2021/06/17 11:15:01;;;;;;;0.20;0.20;;;;;;;32.64;34.72;99879.84;6261579;22;20011;-76
2021/06/17 11:17:29;;;;;;;0.10;0.10;;;;;;;33.28;34.77;99880.72;6261246;22;20008;-76
2021/06/17 11:20:12;;;;;;;0.20;0.10;;;;;;;33.62;33.12;99890.13;6258159;22;20027;-75
2021/06/17 11:23:01;;;;;;;0.17;0.10;;;;;;;33.36;32.60;99873.63;6262447;22;20079;-76
2021/06/17 11:25:28;;;;;;;0.10;0.10;;;;;;;33.11;32.41;99882.63;6263173;22;20003;-76
2021/06/17 11:28:00;;;;;;;0.10;0.10;;;;;;;33.32;32.59;99874.94;6237875;22;20015;-75
2021/06/17 11:30:38;;;;;;;0.10;0.10;;;;;;;33.85;32.80;99866.53;6286246;22;20018;-75
2021/06/17 11:33:21;;;;;;;0.22;0.22;;;;;;;34.34;31.93;99885.69;6258732;22;20007;-74
2021/06/17 11:35:48;;;;;;;0.10;0.10;;;;;;;34.14;31.33;99888.56;6278998;22;20004;-74
2021/06/17 11:38:24;;;;;;;0.10;0.10;;;;;;;33.78;31.58;99870.34;6254291;22;20046;-75
2021/06/17 11:40:50;;;;;;;2.45;1.00;;;;;;;33.16;30.40;99884.97;6281460;22;20425;-76
2021/06/17 11:43:25;;;;;;;1.95;0.52;;;;;;;32.53;32.14;99872.34;6253386;22;20049;-76
2021/06/17 11:45:50;;;;;;;;;;;;;;;32.61;31.73;99883.50;6282036;22;20447;-76
2021/06/17 11:48:16;;;;;;;0.30;0.30;;;;;;;32.40;32.58;99896.00;6250520;22;19994;-76
2021/06/17 11:50:45;;;;;;;0.17;0.17;;;;;;;32.45;33.10;99887.81;6280170;22;20299;-75
2021/06/17 11:53:21;;;;;;;0.25;0.20;;;;;;;32.43;32.55;99893.09;6279308;22;20087;-75
2021/06/17 11:55:55;;;;;;;0.57;0.32;;;;;;;32.27;33.09;99893.78;6279755;22;20015;-76
2021/06/17 11:58:26;;;;;;;0.30;0.30;;;;;;;32.08;32.54;99915.03;6281463;22;20084;-76
2021/06/17 12:00:53;;;;;;;0.20;0.20;;;;;;;31.76;32.93;99910.63;6279861;22;20078;-77
2021/06/17 12:03:23;;;;;;;0.20;0.20;;;;;;;31.49;33.26;99908.50;6253594;22;20066;-76
2021/06/17 12:05:49;;;;;;;0.35;0.10;;;;;;;31.53;33.75;99896.34;6255628;22;20422;-77
2021/06/17 12:08:17;;;;;;;0.10;0.10;;;;;;;31.74;33.33;99910.25;6278998;22;20014;-75
2021/06/17 12:10:52;;;;;;;0.35;0.30;;;;;;;31.78;33.24;99904.56;6275824;22;20009;-75
2021/06/17 12:13:20;;;;;;;0.15;0.10;;;;;;;31.86;33.19;99911.69;6256488;22;20011;-76
2021/06/17 12:15:48;;;;;;;0.15;0.10;;;;;;;31.65;33.48;99895.84;6280353;22;20018;-75
2021/06/17 12:18:24;;;;;;;0.10;0.10;;;;;;;31.43;33.13;99898.91;6285308;22;20028;-76
2021/06/17 12:20:50;;;;;;;0.20;0.20;;;;;;;31.40;33.78;99911.03;6284802;22;20046;-75
2021/06/17 12:23:20;;;;;;;0.20;0.20;;;;;;;31.29;33.04;99902.72;6285355;22;20000;-73
2021/06/17 12:26:08;;;;;;;0.30;0.20;;;;;;;31.59;33.62;99917.31;6249735;22;20418;-74
2021/06/17 12:28:53;;;;;;;0.45;0.30;;;;;;;31.98;32.48;99928.09;6257492;22;20007;-73
2021/06/17 12:31:26;;;;;;;;;;;;;;;32.59;32.66;99914.28;6286092;22;20500;-72
2021/06/17 12:34:04;;;;;;;1.13;0.20;;;;;;;33.06;32.51;99914.28;6258780;22;19952;-74
2021/06/17 12:36:29;;;;;;;0.20;0.10;;;;;;;33.57;32.08;99914.91;6285288;22;20000;-73
2021/06/17 12:39:07;;;;;;;0.20;0.20;;;;;;;33.81;30.09;99917.66;6286124;22;20307;-75
2021/06/17 12:41:41;;;;;;;0.40;0.20;;;;;;;33.62;30.37;99916.44;6287474;22;20315;-74
2021/06/17 12:44:06;;;;;;;0.70;0.13;;;;;;;33.29;30.37;99915.50;6260255;22;20003;-74
2021/06/17 12:46:36;;;;;;;2.95;0.25;;;;;;;32.99;30.50;99909.53;6260025;22;20425;-75
2021/06/17 12:54:42;;;;;;;0.20;0.20;;;;;;;32.87;31.63;99925.13;6284648;22;20075;-75
2021/06/17 12:57:20;;;;;;;1.50;0.20;;;;;;;32.94;30.97;99915.69;6259985;22;20011;-74
2021/06/17 13:00:09;;;;;;;0.50;0.20;;;;;;;32.67;30.39;99915.78;6234877;22;20012;-76
2021/06/17 13:02:44;;;;;;;0.35;0.32;;;;;;;31.98;31.07;99927.28;6288724;22;20007;-76
2021/06/17 13:05:18;;;;;;;0.57;0.30;;;;;;;31.39;32.09;99920.72;6287032;22;20042;-74
2021/06/17 13:08:00;;;;;;;0.20;0.20;;;;;;;31.02;32.62;99930.81;6288986;22;20081;-75
2021/06/17 13:10:27;;;;;;;2.17;0.30;;;;;;;30.67;33.45;99932.72;6283274;22;20078;-75
2021/06/17 13:13:14;;;;;;;0.20;0.13;;;;;;;30.59;33.65;99931.16;6263495;22;20491;-74